sensor_id;sensor_type;location;lat;lon;timestamp;P1;durP1;ratioP1;P2;durP2;ratioP2
3789;SDS011;1910;49.042;9.028;2022-09-27T00:00:42;2.78;;;0.65;;
3789;SDS011;1910;49.042;9.028;2022-09-27T00:03:08;1.35;;;0.50;;
3789;SDS011;1910;49.042;9.028;2022-09-27T00:05:35;0.60;;;0.60;;
3789;SDS011;1910;49.042;9.028;2022-09-27T00:08:01;0.37;;;0.37;;
3789;SDS011;1910;49.042;9.028;2022-09-27T00:10:27;2.75;;;1.10;;
3789;SDS011;1910;49.042;9.028;2022-09-27T00:12:54;0.57;;;0.57;;
3789;SDS011;1910;49.042;9.028;2022-09-27T00:15:19;0.83;;;0.67;;
3789;SDS011;1910;49.042;9.028;2022-09-27T00:17:45;1.45;;;0.50;;
3789;SDS011;1910;49.042;9.028;2022-09-27T00:20:16;0.68;;;0.68;;
3789;SDS011;1910;49.042;9.028;2022-09-27T00:22:43;0.75;;;0.55;;
3789;SDS011;1910;49.042;9.028;2022-09-27T00:25:09;1.00;;;0.73;;
3789;SDS011;1910;49.042;9.028;2022-09-27T00:27:35;0.60;;;0.60;;
3789;SDS011;1910;49.042;9.028;2022-09-27T00:30:01;0.70;;;0.57;;
3789;SDS011;1910;49.042;9.028;2022-09-27T00:32:27;0.50;;;0.50;;
3789;SDS011;1910;49.042;9.028;2022-09-27T00:34:53;0.60;;;0.50;;
3789;SDS011;1910;49.042;9.028;2022-09-27T00:37:19;0.47;;;0.40;;
3789;SDS011;1910;49.042;9.028;2022-09-27T00:39:45;0.80;;;0.40;;
3789;SDS011;1910;49.042;9.028;2022-09-27T00:42:11;1.90;;;0.70;;
3789;SDS011;1910;49.042;9.028;2022-09-27T00:50:06;1.58;;;0.57;;
3789;SDS011;1910;49.042;9.028;2022-09-27T00:52:49;2.35;;;0.50;;
3789;SDS011;1910;49.042;9.028;2022-09-27T00:55:28;2.35;;;0.55;;
3789;SDS011;1910;49.042;9.028;2022-09-27T00:57:57;0.50;;;0.50;;
3789;SDS011;1910;49.042;9.028;2022-09-27T01:00:23;1.20;;;1.10;;
3789;SDS011;1910;49.042;9.028;2022-09-27T01:02:49;1.43;;;0.80;;
3789;SDS011;1910;49.042;9.028;2022-09-27T01:05:17;0.70;;;0.40;;
3789;SDS011;1910;49.042;9.028;2022-09-27T01:07:45;0.60;;;0.60;;
3789;SDS011;1910;49.042;9.028;2022-09-27T01:10:11;0.98;;;0.43;;
3789;SDS011;1910;49.042;9.028;2022-09-27T01:18:17;0.60;;;0.60;;
3789;SDS011;1910;49.042;9.028;2022-09-27T01:32:06;1.08;;;0.60;;
3789;SDS011;1910;49.042;9.028;2022-09-27T01:34:46;1.17;;;0.70;;
3789;SDS011;1910;49.042;9.028;2022-09-27T01:37:44;1.00;;;1.00;;
3789;SDS011;1910;49.042;9.028;2022-09-27T01:40:31;2.05;;;0.82;;
3789;SDS011;1910;49.042;9.028;2022-09-27T01:43:08;0.60;;;0.52;;
3789;SDS011;1910;49.042;9.028;2022-09-27T01:45:43;1.08;;;0.65;;
3789;SDS011;1910;49.042;9.028;2022-09-27T01:48:31;1.55;;;0.65;;
3789;SDS011;1910;49.042;9.028;2022-09-27T01:51:42;2.97;;;0.88;;
3789;SDS011;1910;49.042;9.028;2022-09-27T01:54:13;1.90;;;0.90;;
3789;SDS011;1910;49.042;9.028;2022-09-27T01:56:45;1.10;;;0.95;;
3789;SDS011;1910;49.042;9.028;2022-09-27T01:59:14;1.58;;;0.95;;
3789;SDS011;1910;49.042;9.028;2022-09-27T02:01:52;1.40;;;0.80;;
3789;SDS011;1910;49.042;9.028;2022-09-27T02:04:22;0.65;;;0.65;;
3789;SDS011;1910;49.042;9.028;2022-09-27T02:06:53;1.77;;;0.90;;
3789;SDS011;1910;49.042;9.028;2022-09-27T02:09:27;2.65;;;0.90;;
3789;SDS011;1910;49.042;9.028;2022-09-27T02:11:58;1.67;;;1.00;;
3789;SDS011;1910;49.042;9.028;2022-09-27T02:14:37;4.93;;;1.30;;
3789;SDS011;1910;49.042;9.028;2022-09-27T02:20:00;7.47;;;1.48;;
3789;SDS011;1910;49.042;9.028;2022-09-27T02:25:24;3.67;;;1.38;;
3789;SDS011;1910;49.042;9.028;2022-09-27T02:28:07;2.78;;;1.30;;
3789;SDS011;1910;49.042;9.028;2022-09-27T02:31:15;3.30;;;1.10;;
3789;SDS011;1910;49.042;9.028;2022-09-27T02:33:45;1.53;;;1.00;;
3789;SDS011;1910;49.042;9.028;2022-09-27T02:36:23;4.45;;;1.40;;
3789;SDS011;1910;49.042;9.028;2022-09-27T02:38:49;2.38;;;1.40;;
3789;SDS011;1910;49.042;9.028;2022-09-27T02:41:16;5.27;;;2.30;;
3789;SDS011;1910;49.042;9.028;2022-09-27T02:43:44;3.05;;;1.20;;
3789;SDS011;1910;49.042;9.028;2022-09-27T02:48:44;8.25;;;1.88;;
3789;SDS011;1910;49.042;9.028;2022-09-27T02:51:57;2.55;;;1.60;;
3789;SDS011;1910;49.042;9.028;2022-09-27T03:00:16;4.63;;;2.22;;
3789;SDS011;1910;49.042;9.028;2022-09-27T03:02:48;2.50;;;1.95;;
3789;SDS011;1910;49.042;9.028;2022-09-27T03:05:40;6.85;;;2.33;;
3789;SDS011;1910;49.042;9.028;2022-09-27T03:08:11;3.85;;;1.85;;
3789;SDS011;1910;49.042;9.028;2022-09-27T03:10:37;4.55;;;2.10;;
3789;SDS011;1910;49.042;9.028;2022-09-27T03:13:03;3.13;;;1.43;;
3789;SDS011;1910;49.042;9.028;2022-09-27T03:15:29;4.10;;;2.20;;
3789;SDS011;1910;49.042;9.028;2022-09-27T03:17:56;4.45;;;1.67;;
3789;SDS011;1910;49.042;9.028;2022-09-27T03:20:22;4.60;;;2.70;;
3789;SDS011;1910;49.042;9.028;2022-09-27T03:22:48;5.93;;;2.42;;
3789;SDS011;1910;49.042;9.028;2022-09-27T03:25:13;7.50;;;2.50;;
3789;SDS011;1910;49.042;9.028;2022-09-27T03:27:39;4.23;;;2.17;;
3789;SDS011;1910;49.042;9.028;2022-09-27T03:30:05;7.18;;;2.58;;
3789;SDS011;1910;49.042;9.028;2022-09-27T03:32:31;6.15;;;3.08;;
3789;SDS011;1910;49.042;9.028;2022-09-27T03:34:58;12.98;;;2.92;;
3789;SDS011;1910;49.042;9.028;2022-09-27T03:37:24;6.45;;;2.33;;
3789;SDS011;1910;49.042;9.028;2022-09-27T03:39:53;4.43;;;3.00;;
3789;SDS011;1910;49.042;9.028;2022-09-27T03:42:18;3.77;;;2.40;;
3789;SDS011;1910;49.042;9.028;2022-09-27T03:44:44;6.47;;;3.23;;
3789;SDS011;1910;49.042;9.028;2022-09-27T03:47:10;4.53;;;3.00;;
3789;SDS011;1910;49.042;9.028;2022-09-27T03:49:36;3.57;;;2.30;;
3789;SDS011;1910;49.042;9.028;2022-09-27T03:52:02;5.90;;;3.13;;
3789;SDS011;1910;49.042;9.028;2022-09-27T03:54:28;7.93;;;2.83;;
3789;SDS011;1910;49.042;9.028;2022-09-27T03:56:54;10.27;;;3.00;;
3789;SDS011;1910;49.042;9.028;2022-09-27T03:59:20;12.20;;;3.00;;
3789;SDS011;1910;49.042;9.028;2022-09-27T04:01:46;10.20;;;3.80;;
3789;SDS011;1910;49.042;9.028;2022-09-27T04:04:11;11.00;;;3.30;;
3789;SDS011;1910;49.042;9.028;2022-09-27T04:06:38;4.20;;;3.80;;
3789;SDS011;1910;49.042;9.028;2022-09-27T04:09:04;3.83;;;1.83;;
3789;SDS011;1910;49.042;9.028;2022-09-27T04:11:30;4.43;;;2.53;;
3789;SDS011;1910;49.042;9.028;2022-09-27T04:13:56;8.03;;;2.27;;
3789;SDS011;1910;49.042;9.028;2022-09-27T04:16:22;4.20;;;2.58;;
3789;SDS011;1910;49.042;9.028;2022-09-27T04:18:49;4.50;;;1.75;;
3789;SDS011;1910;49.042;9.028;2022-09-27T04:21:15;3.40;;;2.25;;
3789;SDS011;1910;49.042;9.028;2022-09-27T04:23:41;7.70;;;2.43;;
3789;SDS011;1910;49.042;9.028;2022-09-27T04:26:07;5.00;;;2.40;;
3789;SDS011;1910;49.042;9.028;2022-09-27T04:28:33;8.43;;;2.45;;
3789;SDS011;1910;49.042;9.028;2022-09-27T04:30:59;7.70;;;2.57;;
3789;SDS011;1910;49.042;9.028;2022-09-27T04:33:25;9.30;;;2.83;;
3789;SDS011;1910;49.042;9.028;2022-09-27T04:35:51;9.67;;;3.00;;
3789;SDS011;1910;49.042;9.028;2022-09-27T04:38:36;6.47;;;2.65;;
3789;SDS011;1910;49.042;9.028;2022-09-27T04:41:03;20.92;;;2.30;;
3789;SDS011;1910;49.042;9.028;2022-09-27T04:43:31;4.93;;;2.50;;
3789;SDS011;1910;49.042;9.028;2022-09-27T04:45:57;9.67;;;2.17;;
3789;SDS011;1910;49.042;9.028;2022-09-27T04:48:23;8.53;;;3.00;;
3789;SDS011;1910;49.042;9.028;2022-09-27T04:50:58;5.63;;;2.17;;
3789;SDS011;1910;49.042;9.028;2022-09-27T04:53:26;4.35;;;2.70;;
3789;SDS011;1910;49.042;9.028;2022-09-27T04:55:53;5.80;;;2.20;;
3789;SDS011;1910;49.042;9.028;2022-09-27T04:58:20;9.43;;;2.05;;
3789;SDS011;1910;49.042;9.028;2022-09-27T05:00:47;2.42;;;1.38;;
3789;SDS011;1910;49.042;9.028;2022-09-27T05:03:15;2.47;;;2.25;;
3789;SDS011;1910;49.042;9.028;2022-09-27T05:05:41;4.63;;;2.28;;
3789;SDS011;1910;49.042;9.028;2022-09-27T05:08:07;5.00;;;2.00;;
3789;SDS011;1910;49.042;9.028;2022-09-27T05:10:33;4.60;;;2.13;;
3789;SDS011;1910;49.042;9.028;2022-09-27T05:12:59;1.88;;;1.70;;
3789;SDS011;1910;49.042;9.028;2022-09-27T05:15:25;5.93;;;2.17;;
3789;SDS011;1910;49.042;9.028;2022-09-27T05:17:51;8.73;;;2.83;;
3789;SDS011;1910;49.042;9.028;2022-09-27T05:20:17;4.53;;;2.40;;
3789;SDS011;1910;49.042;9.028;2022-09-27T05:22:43;3.67;;;2.20;;
3789;SDS011;1910;49.042;9.028;2022-09-27T05:25:09;5.47;;;1.98;;
3789;SDS011;1910;49.042;9.028;2022-09-27T05:27:35;1.17;;;1.07;;
3789;SDS011;1910;49.042;9.028;2022-09-27T05:30:01;5.93;;;1.52;;
3789;SDS011;1910;49.042;9.028;2022-09-27T05:32:27;8.43;;;2.35;;
3789;SDS011;1910;49.042;9.028;2022-09-27T05:34:53;5.70;;;2.20;;
3789;SDS011;1910;49.042;9.028;2022-09-27T05:37:19;2.40;;;1.60;;
3789;SDS011;1910;49.042;9.028;2022-09-27T05:39:45;4.13;;;1.77;;
3789;SDS011;1910;49.042;9.028;2022-09-27T05:42:11;5.90;;;1.90;;
3789;SDS011;1910;49.042;9.028;2022-09-27T05:44:39;1.95;;;1.55;;
3789;SDS011;1910;49.042;9.028;2022-09-27T05:47:05;1.80;;;1.67;;
3789;SDS011;1910;49.042;9.028;2022-09-27T05:49:31;2.90;;;1.60;;
3789;SDS011;1910;49.042;9.028;2022-09-27T05:51:57;1.83;;;1.50;;
3789;SDS011;1910;49.042;9.028;2022-09-27T05:54:23;2.45;;;1.52;;
3789;SDS011;1910;49.042;9.028;2022-09-27T05:56:52;3.17;;;1.50;;
3789;SDS011;1910;49.042;9.028;2022-09-27T05:59:22;3.70;;;1.20;;
3789;SDS011;1910;49.042;9.028;2022-09-27T06:01:48;2.42;;;1.45;;
3789;SDS011;1910;49.042;9.028;2022-09-27T06:04:14;1.83;;;1.10;;
3789;SDS011;1910;49.042;9.028;2022-09-27T06:06:40;4.07;;;1.53;;
3789;SDS011;1910;49.042;9.028;2022-09-27T06:09:09;3.00;;;1.43;;
3789;SDS011;1910;49.042;9.028;2022-09-27T06:11:35;4.07;;;1.75;;
3789;SDS011;1910;49.042;9.028;2022-09-27T06:14:01;10.37;;;1.77;;
3789;SDS011;1910;49.042;9.028;2022-09-27T06:16:27;3.63;;;2.00;;
3789;SDS011;1910;49.042;9.028;2022-09-27T06:18:53;3.40;;;1.83;;
3789;SDS011;1910;49.042;9.028;2022-09-27T06:21:19;2.22;;;1.60;;
3789;SDS011;1910;49.042;9.028;2022-09-27T06:23:45;2.77;;;1.73;;
3789;SDS011;1910;49.042;9.028;2022-09-27T06:26:11;4.32;;;1.98;;
3789;SDS011;1910;49.042;9.028;2022-09-27T06:28:36;9.00;;;2.83;;
3789;SDS011;1910;49.042;9.028;2022-09-27T06:31:06;3.67;;;2.75;;
3789;SDS011;1910;49.042;9.028;2022-09-27T06:33:33;2.40;;;2.15;;
3789;SDS011;1910;49.042;9.028;2022-09-27T06:36:03;2.67;;;2.20;;
3789;SDS011;1910;49.042;9.028;2022-09-27T06:38:29;6.68;;;2.13;;
3789;SDS011;1910;49.042;9.028;2022-09-27T06:41:00;2.70;;;1.93;;
3789;SDS011;1910;49.042;9.028;2022-09-27T06:43:27;2.78;;;2.28;;
3789;SDS011;1910;49.042;9.028;2022-09-27T06:45:55;4.53;;;2.47;;
3789;SDS011;1910;49.042;9.028;2022-09-27T06:48:30;4.90;;;2.05;;
3789;SDS011;1910;49.042;9.028;2022-09-27T06:50:57;2.03;;;1.85;;
3789;SDS011;1910;49.042;9.028;2022-09-27T06:53:23;4.30;;;2.17;;
3789;SDS011;1910;49.042;9.028;2022-09-27T06:55:49;1.98;;;1.13;;
3789;SDS011;1910;49.042;9.028;2022-09-27T06:58:15;2.60;;;2.08;;
3789;SDS011;1910;49.042;9.028;2022-09-27T07:01:00;4.70;;;1.95;;
3789;SDS011;1910;49.042;9.028;2022-09-27T07:03:26;2.70;;;1.80;;
3789;SDS011;1910;49.042;9.028;2022-09-27T07:06:00;3.45;;;1.80;;
3789;SDS011;1910;49.042;9.028;2022-09-27T07:08:27;3.47;;;1.60;;
3789;SDS011;1910;49.042;9.028;2022-09-27T07:11:03;3.38;;;1.60;;
3789;SDS011;1910;49.042;9.028;2022-09-27T07:13:30;2.08;;;1.90;;
3789;SDS011;1910;49.042;9.028;2022-09-27T07:15:58;3.40;;;1.60;;
3789;SDS011;1910;49.042;9.028;2022-09-27T07:18:24;8.55;;;2.22;;
3789;SDS011;1910;49.042;9.028;2022-09-27T07:20:51;2.22;;;1.63;;
3789;SDS011;1910;49.042;9.028;2022-09-27T07:23:16;1.93;;;1.40;;
3789;SDS011;1910;49.042;9.028;2022-09-27T07:25:42;1.73;;;1.30;;
3789;SDS011;1910;49.042;9.028;2022-09-27T07:28:11;1.70;;;1.60;;
3789;SDS011;1910;49.042;9.028;2022-09-27T07:30:39;1.25;;;1.13;;
3789;SDS011;1910;49.042;9.028;2022-09-27T07:33:05;1.35;;;1.20;;
3789;SDS011;1910;49.042;9.028;2022-09-27T07:35:33;1.95;;;1.20;;
3789;SDS011;1910;49.042;9.028;2022-09-27T07:38:01;4.38;;;1.50;;
3789;SDS011;1910;49.042;9.028;2022-09-27T07:40:29;2.42;;;1.52;;
3789;SDS011;1910;49.042;9.028;2022-09-27T07:42:55;1.08;;;0.85;;
3789;SDS011;1910;49.042;9.028;2022-09-27T07:45:21;1.27;;;1.05;;
3789;SDS011;1910;49.042;9.028;2022-09-27T07:47:48;1.40;;;1.30;;
3789;SDS011;1910;49.042;9.028;2022-09-27T07:50:14;1.50;;;1.23;;
3789;SDS011;1910;49.042;9.028;2022-09-27T07:52:41;2.90;;;1.50;;
3789;SDS011;1910;49.042;9.028;2022-09-27T07:55:11;3.72;;;1.10;;
3789;SDS011;1910;49.042;9.028;2022-09-27T07:57:38;2.35;;;1.30;;
3789;SDS011;1910;49.042;9.028;2022-09-27T08:00:04;1.27;;;1.17;;
3789;SDS011;1910;49.042;9.028;2022-09-27T08:02:35;1.42;;;1.30;;
3789;SDS011;1910;49.042;9.028;2022-09-27T08:05:01;3.67;;;1.67;;
3789;SDS011;1910;49.042;9.028;2022-09-27T08:07:27;2.47;;;1.60;;
3789;SDS011;1910;49.042;9.028;2022-09-27T08:09:53;5.28;;;1.83;;
3789;SDS011;1910;49.042;9.028;2022-09-27T08:12:19;2.85;;;1.40;;
3789;SDS011;1910;49.042;9.028;2022-09-27T08:14:45;4.57;;;3.10;;
3789;SDS011;1910;49.042;9.028;2022-09-27T08:17:11;2.20;;;1.95;;
3789;SDS011;1910;49.042;9.028;2022-09-27T08:19:37;1.83;;;1.10;;
3789;SDS011;1910;49.042;9.028;2022-09-27T08:22:04;1.40;;;1.30;;
3789;SDS011;1910;49.042;9.028;2022-09-27T08:24:30;7.30;;;1.20;;
3789;SDS011;1910;49.042;9.028;2022-09-27T08:26:57;3.53;;;0.80;;
3789;SDS011;1910;49.042;9.028;2022-09-27T08:29:23;1.52;;;1.20;;
3789;SDS011;1910;49.042;9.028;2022-09-27T08:31:51;7.93;;;1.23;;
3789;SDS011;1910;49.042;9.028;2022-09-27T08:34:18;1.63;;;1.52;;
3789;SDS011;1910;49.042;9.028;2022-09-27T08:36:44;1.70;;;1.20;;
3789;SDS011;1910;49.042;9.028;2022-09-27T08:39:10;5.40;;;1.43;;
3789;SDS011;1910;49.042;9.028;2022-09-27T08:41:37;7.27;;;1.63;;
3789;SDS011;1910;49.042;9.028;2022-09-27T08:44:43;2.40;;;1.50;;
3789;SDS011;1910;49.042;9.028;2022-09-27T08:47:33;2.45;;;1.05;;
3789;SDS011;1910;49.042;9.028;2022-09-27T08:53:19;1.73;;;1.35;;
3789;SDS011;1910;49.042;9.028;2022-09-27T08:55:56;6.25;;;1.40;;
3789;SDS011;1910;49.042;9.028;2022-09-27T08:58:27;0.77;;;0.70;;
3789;SDS011;1910;49.042;9.028;2022-09-27T09:00:57;1.80;;;1.17;;
3789;SDS011;1910;49.042;9.028;2022-09-27T09:03:26;1.10;;;1.10;;
3789;SDS011;1910;49.042;9.028;2022-09-27T09:06:06;1.35;;;1.25;;
3789;SDS011;1910;49.042;9.028;2022-09-27T09:09:03;2.40;;;1.50;;
3789;SDS011;1910;49.042;9.028;2022-09-27T09:20:28;2.85;;;1.92;;
3789;SDS011;1910;49.042;9.028;2022-09-27T09:23:12;4.10;;;1.65;;
3789;SDS011;1910;49.042;9.028;2022-09-27T09:31:34;1.95;;;1.42;;
3789;SDS011;1910;49.042;9.028;2022-09-27T09:34:04;2.00;;;1.70;;
3789;SDS011;1910;49.042;9.028;2022-09-27T09:36:43;4.20;;;2.10;;
3789;SDS011;1910;49.042;9.028;2022-09-27T09:39:16;1.85;;;1.70;;
3789;SDS011;1910;49.042;9.028;2022-09-27T09:44:19;3.25;;;2.22;;
3789;SDS011;1910;49.042;9.028;2022-09-27T09:46:52;3.03;;;1.48;;
3789;SDS011;1910;49.042;9.028;2022-09-27T09:49:29;6.80;;;1.90;;
3789;SDS011;1910;49.042;9.028;2022-09-27T09:52:01;7.20;;;2.60;;
3789;SDS011;1910;49.042;9.028;2022-09-27T09:54:31;3.03;;;2.28;;
3789;SDS011;1910;49.042;9.028;2022-09-27T09:57:06;4.30;;;1.90;;
3789;SDS011;1910;49.042;9.028;2022-09-27T10:00:00;3.17;;;2.03;;
3789;SDS011;1910;49.042;9.028;2022-09-27T10:02:33;4.43;;;2.65;;
3789;SDS011;1910;49.042;9.028;2022-09-27T10:05:01;4.55;;;1.73;;
3789;SDS011;1910;49.042;9.028;2022-09-27T10:07:27;6.85;;;2.28;;
3789;SDS011;1910;49.042;9.028;2022-09-27T10:09:54;5.47;;;2.25;;
3789;SDS011;1910;49.042;9.028;2022-09-27T10:12:23;4.45;;;2.20;;
3789;SDS011;1910;49.042;9.028;2022-09-27T10:14:49;8.43;;;2.20;;
3789;SDS011;1910;49.042;9.028;2022-09-27T10:17:18;2.47;;;2.13;;
3789;SDS011;1910;49.042;9.028;2022-09-27T10:19:47;5.28;;;1.80;;
3789;SDS011;1910;49.042;9.028;2022-09-27T10:22:18;9.60;;;4.28;;
3789;SDS011;1910;49.042;9.028;2022-09-27T10:24:53;8.10;;;2.15;;
3789;SDS011;1910;49.042;9.028;2022-09-27T10:27:21;2.90;;;2.10;;
3789;SDS011;1910;49.042;9.028;2022-09-27T10:29:54;5.07;;;1.88;;
3789;SDS011;1910;49.042;9.028;2022-09-27T10:32:22;2.70;;;2.10;;
3789;SDS011;1910;49.042;9.028;2022-09-27T10:34:51;2.58;;;2.35;;
3789;SDS011;1910;49.042;9.028;2022-09-27T10:37:19;5.18;;;2.08;;
3789;SDS011;1910;49.042;9.028;2022-09-27T10:39:47;1.55;;;1.40;;
3789;SDS011;1910;49.042;9.028;2022-09-27T10:42:34;3.55;;;2.75;;
3789;SDS011;1910;49.042;9.028;2022-09-27T10:48:00;2.40;;;2.20;;
3789;SDS011;1910;49.042;9.028;2022-09-27T10:50:27;6.57;;;2.00;;
3789;SDS011;1910;49.042;9.028;2022-09-27T10:55:27;2.70;;;2.50;;
3789;SDS011;1910;49.042;9.028;2022-09-27T10:57:57;1.40;;;1.30;;
3789;SDS011;1910;49.042;9.028;2022-09-27T11:00:24;3.95;;;2.88;;
3789;SDS011;1910;49.042;9.028;2022-09-27T11:03:02;2.80;;;1.80;;
3789;SDS011;1910;49.042;9.028;2022-09-27T11:07:58;4.82;;;2.42;;
3789;SDS011;1910;49.042;9.028;2022-09-27T11:10:31;3.20;;;2.08;;
3789;SDS011;1910;49.042;9.028;2022-09-27T11:13:06;3.75;;;1.90;;
3789;SDS011;1910;49.042;9.028;2022-09-27T11:15:34;3.70;;;1.70;;
3789;SDS011;1910;49.042;9.028;2022-09-27T11:21:32;3.22;;;2.03;;
3789;SDS011;1910;49.042;9.028;2022-09-27T11:32:11;3.97;;;1.30;;
3789;SDS011;1910;49.042;9.028;2022-09-27T11:35:09;0.82;;;0.63;;
3789;SDS011;1910;49.042;9.028;2022-09-27T11:37:55;1.30;;;0.93;;
3789;SDS011;1910;49.042;9.028;2022-09-27T11:40:53;0.60;;;0.50;;
3789;SDS011;1910;49.042;9.028;2022-09-27T11:46:19;0.45;;;0.40;;
3789;SDS011;1910;49.042;9.028;2022-09-27T11:51:27;3.25;;;0.63;;
3789;SDS011;1910;49.042;9.028;2022-09-27T11:56:46;1.03;;;0.63;;
3789;SDS011;1910;49.042;9.028;2022-09-27T12:02:31;0.90;;;0.70;;
3789;SDS011;1910;49.042;9.028;2022-09-27T12:10:41;0.50;;;0.47;;
3789;SDS011;1910;49.042;9.028;2022-09-27T12:13:12;5.85;;;0.85;;
3789;SDS011;1910;49.042;9.028;2022-09-27T12:15:41;2.78;;;1.30;;
3789;SDS011;1910;49.042;9.028;2022-09-27T12:18:15;5.03;;;1.13;;
3789;SDS011;1910;49.042;9.028;2022-09-27T12:20:58;1.73;;;0.63;;
3789;SDS011;1910;49.042;9.028;2022-09-27T12:23:35;2.08;;;0.60;;
3789;SDS011;1910;49.042;9.028;2022-09-27T12:26:06;2.70;;;0.93;;
3789;SDS011;1910;49.042;9.028;2022-09-27T12:28:51;3.50;;;1.10;;
3789;SDS011;1910;49.042;9.028;2022-09-27T12:31:22;1.63;;;0.75;;
3789;SDS011;1910;49.042;9.028;2022-09-27T12:33:57;1.25;;;0.90;;
3789;SDS011;1910;49.042;9.028;2022-09-27T12:36:44;1.45;;;0.50;;
3789;SDS011;1910;49.042;9.028;2022-09-27T12:42:12;1.00;;;0.80;;
3789;SDS011;1910;49.042;9.028;2022-09-27T12:44:49;1.70;;;0.80;;
3789;SDS011;1910;49.042;9.028;2022-09-27T12:50:10;2.90;;;1.05;;
3789;SDS011;1910;49.042;9.028;2022-09-27T12:53:00;0.93;;;0.70;;
3789;SDS011;1910;49.042;9.028;2022-09-27T12:58:23;0.70;;;0.60;;
3789;SDS011;1910;49.042;9.028;2022-09-27T13:01:19;1.33;;;1.02;;
3789;SDS011;1910;49.042;9.028;2022-09-27T13:06:47;2.15;;;1.10;;
3789;SDS011;1910;49.042;9.028;2022-09-27T13:09:28;2.25;;;1.27;;
3789;SDS011;1910;49.042;9.028;2022-09-27T13:12:10;2.17;;;0.80;;
3789;SDS011;1910;49.042;9.028;2022-09-27T13:15:21;0.50;;;0.50;;
3789;SDS011;1910;49.042;9.028;2022-09-27T13:22:52;0.60;;;0.57;;
3789;SDS011;1910;49.042;9.028;2022-09-27T13:31:00;0.80;;;0.80;;
3789;SDS011;1910;49.042;9.028;2022-09-27T13:33:31;2.30;;;0.90;;
3789;SDS011;1910;49.042;9.028;2022-09-27T13:36:06;1.20;;;1.00;;
3789;SDS011;1910;49.042;9.028;2022-09-27T13:38:32;0.60;;;0.60;;
3789;SDS011;1910;49.042;9.028;2022-09-27T13:41:17;0.98;;;0.93;;
3789;SDS011;1910;49.042;9.028;2022-09-27T13:44:06;4.45;;;0.82;;
3789;SDS011;1910;49.042;9.028;2022-09-27T13:46:44;2.55;;;1.08;;
3789;SDS011;1910;49.042;9.028;2022-09-27T13:49:20;1.45;;;0.95;;
3789;SDS011;1910;49.042;9.028;2022-09-27T13:52:13;1.05;;;0.90;;
3789;SDS011;1910;49.042;9.028;2022-09-27T13:54:52;0.50;;;0.50;;
3789;SDS011;1910;49.042;9.028;2022-09-27T14:00:19;1.98;;;0.88;;
3789;SDS011;1910;49.042;9.028;2022-09-27T14:02:58;3.28;;;0.80;;
3789;SDS011;1910;49.042;9.028;2022-09-27T14:05:56;1.25;;;0.77;;
3789;SDS011;1910;49.042;9.028;2022-09-27T14:08:37;0.73;;;0.73;;
3789;SDS011;1910;49.042;9.028;2022-09-27T14:11:27;1.40;;;1.30;;
3789;SDS011;1910;49.042;9.028;2022-09-27T14:13:57;1.70;;;0.82;;
3789;SDS011;1910;49.042;9.028;2022-09-27T14:16:26;2.45;;;1.00;;
3789;SDS011;1910;49.042;9.028;2022-09-27T14:18:56;0.88;;;0.77;;
3789;SDS011;1910;49.042;9.028;2022-09-27T14:21:33;2.90;;;0.93;;
3789;SDS011;1910;49.042;9.028;2022-09-27T14:24:20;0.82;;;0.80;;
3789;SDS011;1910;49.042;9.028;2022-09-27T14:26:49;2.15;;;1.20;;
3789;SDS011;1910;49.042;9.028;2022-09-27T14:29:29;2.45;;;0.93;;
3789;SDS011;1910;49.042;9.028;2022-09-27T14:32:03;1.15;;;1.02;;
3789;SDS011;1910;49.042;9.028;2022-09-27T14:34:30;1.70;;;1.20;;
3789;SDS011;1910;49.042;9.028;2022-09-27T14:36:56;2.25;;;0.90;;
3789;SDS011;1910;49.042;9.028;2022-09-27T14:39:41;1.23;;;0.80;;
3789;SDS011;1910;49.042;9.028;2022-09-27T14:42:20;1.80;;;1.17;;
3789;SDS011;1910;49.042;9.028;2022-09-27T14:44:48;3.03;;;1.20;;
3789;SDS011;1910;49.042;9.028;2022-09-27T14:49:59;2.25;;;0.93;;
3789;SDS011;1910;49.042;9.028;2022-09-27T14:52:29;6.15;;;1.35;;
3789;SDS011;1910;49.042;9.028;2022-09-27T14:54:59;3.75;;;1.15;;
3789;SDS011;1910;49.042;9.028;2022-09-27T14:57:39;1.75;;;1.10;;
3789;SDS011;1910;49.042;9.028;2022-09-27T15:00:16;1.20;;;1.10;;
3789;SDS011;1910;49.042;9.028;2022-09-27T15:02:45;1.23;;;1.08;;
3789;SDS011;1910;49.042;9.028;2022-09-27T15:05:13;1.50;;;1.00;;
3789;SDS011;1910;49.042;9.028;2022-09-27T15:07:41;1.10;;;1.00;;
3789;SDS011;1910;49.042;9.028;2022-09-27T15:10:17;1.88;;;0.90;;
3789;SDS011;1910;49.042;9.028;2022-09-27T15:12:46;1.77;;;0.90;;
3789;SDS011;1910;49.042;9.028;2022-09-27T15:15:18;2.38;;;0.93;;
3789;SDS011;1910;49.042;9.028;2022-09-27T15:17:55;0.63;;;0.60;;
3789;SDS011;1910;49.042;9.028;2022-09-27T15:20:26;4.38;;;1.30;;
3789;SDS011;1910;49.042;9.028;2022-09-27T15:22:56;1.50;;;1.17;;
3789;SDS011;1910;49.042;9.028;2022-09-27T15:27:50;2.20;;;1.33;;
3789;SDS011;1910;49.042;9.028;2022-09-27T15:30:23;1.90;;;1.40;;
3789;SDS011;1910;49.042;9.028;2022-09-27T15:32:52;1.35;;;1.02;;
3789;SDS011;1910;49.042;9.028;2022-09-27T15:35:24;2.15;;;1.25;;
3789;SDS011;1910;49.042;9.028;2022-09-27T15:38:09;1.58;;;1.20;;
3789;SDS011;1910;49.042;9.028;2022-09-27T15:45:50;2.33;;;1.70;;
3789;SDS011;1910;49.042;9.028;2022-09-27T15:48:18;1.20;;;1.10;;
3789;SDS011;1910;49.042;9.028;2022-09-27T15:50:44;2.63;;;1.25;;
3789;SDS011;1910;49.042;9.028;2022-09-27T15:55:58;1.52;;;1.08;;
3789;SDS011;1910;49.042;9.028;2022-09-27T15:58:25;2.38;;;1.20;;
3789;SDS011;1910;49.042;9.028;2022-09-27T16:00:52;3.08;;;1.10;;
3789;SDS011;1910;49.042;9.028;2022-09-27T16:03:17;1.20;;;1.10;;
3789;SDS011;1910;49.042;9.028;2022-09-27T16:05:43;1.10;;;1.00;;
3789;SDS011;1910;49.042;9.028;2022-09-27T16:08:09;5.53;;;0.90;;
3789;SDS011;1910;49.042;9.028;2022-09-27T16:10:40;2.08;;;1.60;;
3789;SDS011;1910;49.042;9.028;2022-09-27T16:13:09;6.00;;;4.18;;
3789;SDS011;1910;49.042;9.028;2022-09-27T16:15:35;7.63;;;6.83;;
3789;SDS011;1910;49.042;9.028;2022-09-27T16:18:01;3.67;;;2.25;;
3789;SDS011;1910;49.042;9.028;2022-09-27T16:20:27;3.20;;;1.05;;
3789;SDS011;1910;49.042;9.028;2022-09-27T16:22:54;3.07;;;1.03;;
3789;SDS011;1910;49.042;9.028;2022-09-27T16:25:20;2.55;;;1.27;;
3789;SDS011;1910;49.042;9.028;2022-09-27T16:27:46;1.52;;;1.13;;
3789;SDS011;1910;49.042;9.028;2022-09-27T16:30:13;1.35;;;0.93;;
3789;SDS011;1910;49.042;9.028;2022-09-27T16:32:39;2.35;;;0.75;;
3789;SDS011;1910;49.042;9.028;2022-09-27T16:35:06;1.95;;;1.15;;
3789;SDS011;1910;49.042;9.028;2022-09-27T16:37:32;1.58;;;0.98;;
3789;SDS011;1910;49.042;9.028;2022-09-27T16:39:58;1.98;;;1.23;;
3789;SDS011;1910;49.042;9.028;2022-09-27T16:42:24;1.27;;;1.17;;
3789;SDS011;1910;49.042;9.028;2022-09-27T16:44:51;1.45;;;0.95;;
3789;SDS011;1910;49.042;9.028;2022-09-27T16:47:18;4.78;;;1.77;;
3789;SDS011;1910;49.042;9.028;2022-09-27T16:49:44;5.15;;;1.40;;
3789;SDS011;1910;49.042;9.028;2022-09-27T16:52:29;2.65;;;0.93;;
3789;SDS011;1910;49.042;9.028;2022-09-27T16:54:58;2.05;;;1.05;;
3789;SDS011;1910;49.042;9.028;2022-09-27T16:57:24;14.45;;;1.35;;
3789;SDS011;1910;49.042;9.028;2022-09-27T16:59:53;2.08;;;1.58;;
3789;SDS011;1910;49.042;9.028;2022-09-27T17:02:23;3.70;;;1.98;;
3789;SDS011;1910;49.042;9.028;2022-09-27T17:04:51;2.17;;;1.73;;
3789;SDS011;1910;49.042;9.028;2022-09-27T17:07:17;5.28;;;3.10;;
3789;SDS011;1910;49.042;9.028;2022-09-27T17:09:43;2.30;;;1.00;;
3789;SDS011;1910;49.042;9.028;2022-09-27T17:12:10;3.30;;;2.00;;
3789;SDS011;1910;49.042;9.028;2022-09-27T17:14:36;4.13;;;1.88;;
3789;SDS011;1910;49.042;9.028;2022-09-27T17:17:01;1.97;;;1.77;;
3789;SDS011;1910;49.042;9.028;2022-09-27T17:19:27;3.93;;;2.30;;
3789;SDS011;1910;49.042;9.028;2022-09-27T17:21:53;7.20;;;3.78;;
3789;SDS011;1910;49.042;9.028;2022-09-27T17:24:20;3.07;;;2.77;;
3789;SDS011;1910;49.042;9.028;2022-09-27T17:26:46;4.45;;;2.88;;
3789;SDS011;1910;49.042;9.028;2022-09-27T17:29:12;2.58;;;1.80;;
3789;SDS011;1910;49.042;9.028;2022-09-27T17:31:38;7.15;;;1.40;;
3789;SDS011;1910;49.042;9.028;2022-09-27T17:34:10;3.92;;;1.00;;
3789;SDS011;1910;49.042;9.028;2022-09-27T17:36:37;1.65;;;1.30;;
3789;SDS011;1910;49.042;9.028;2022-09-27T17:39:06;5.65;;;1.92;;
3789;SDS011;1910;49.042;9.028;2022-09-27T17:41:32;3.05;;;1.40;;
3789;SDS011;1910;49.042;9.028;2022-09-27T17:43:59;1.92;;;1.70;;
3789;SDS011;1910;49.042;9.028;2022-09-27T17:46:26;1.88;;;1.30;;
3789;SDS011;1910;49.042;9.028;2022-09-27T17:48:54;7.50;;;2.65;;